createdAt,value
2022-09-05T00:00:12.705Z,38.87
2022-09-05T00:03:04.192Z,39.19
2022-09-05T00:06:02.744Z,39.15
2022-09-05T00:08:59.221Z,39.56
2022-09-05T00:11:41.447Z,39.30
2022-09-05T00:14:57.256Z,39.66
2022-09-05T00:17:47.225Z,39.19
2022-09-05T00:24:28.562Z,39.65
2022-09-05T00:24:29.349Z,39.48
2022-09-05T00:26:31.252Z,39.87
2022-09-05T00:29:06.110Z,39.75
2022-09-05T00:31:54.528Z,39.58
2022-09-05T00:34:48.452Z,39.56
2022-09-05T00:37:35.483Z,39.62
2022-09-05T00:40:29.072Z,39.82
2022-09-05T00:43:03.990Z,40.09
2022-09-05T00:45:37.214Z,40.35
2022-09-05T00:48:17.336Z,40.23
2022-09-05T00:51:14.784Z,39.75
2022-09-05T00:53:48.519Z,40.14
2022-09-05T00:56:42.029Z,40.42
2022-09-05T00:59:58.811Z,40.37
2022-09-05T01:02:32.104Z,40.54
2022-09-05T01:05:37.654Z,40.60
2022-09-05T01:08:25.902Z,40.23
2022-09-05T01:11:25.192Z,40.72
2022-09-05T01:14:12.760Z,40.91
2022-09-05T01:17:17.135Z,40.92
2022-09-05T01:19:55.633Z,41.16
2022-09-05T01:22:40.527Z,41.08
2022-09-05T01:25:25.706Z,39.94
2022-09-05T01:29:13.038Z,40.80
2022-09-05T01:31:04.839Z,41.27
2022-09-05T01:33:44.127Z,41.63
2022-09-05T01:36:38.203Z,41.34
2022-09-05T01:40:10.954Z,41.52
2022-09-05T01:42:22.950Z,41.57
2022-09-05T01:44:57.109Z,41.76
2022-09-05T01:47:42.141Z,42.51
2022-09-05T01:50:14.994Z,42.38
2022-09-05T01:53:06.333Z,42.12
2022-09-05T01:56:04.846Z,41.81
2022-09-05T01:58:52.356Z,42.19
2022-09-05T02:01:25.480Z,42.58
2022-09-05T02:04:08.062Z,42.93
2022-09-05T02:06:44.927Z,42.64
2022-09-05T02:09:29.881Z,42.45
2022-09-05T02:12:07.017Z,43.07
2022-09-05T02:14:43.434Z,42.96
2022-09-05T02:17:50.484Z,42.90
2022-09-05T02:20:31.306Z,43.01
2022-09-05T02:23:00.855Z,43.21
2022-09-05T02:26:03.592Z,42.85
2022-09-05T02:28:48.362Z,43.20
2022-09-05T02:31:32.675Z,42.99
2022-09-05T02:34:15.386Z,43.17
2022-09-05T02:36:50.487Z,43.41
2022-09-05T02:45:04.247Z,43.60
2022-09-05T02:45:20.006Z,43.66
2022-09-05T02:45:41.260Z,43.20
2022-09-05T02:48:32.105Z,43.79
2022-09-05T02:55:54.759Z,43.60
2022-09-05T02:57:34.735Z,43.80
2022-09-05T02:58:04.561Z,43.43
2022-09-05T03:00:23.326Z,43.71
2022-09-05T03:03:14.379Z,43.59
2022-09-05T03:06:00.653Z,43.61
2022-09-05T03:08:50.032Z,43.86
2022-09-05T03:11:48.730Z,43.77
2022-09-05T03:14:46.761Z,43.71
2022-09-05T03:17:47.287Z,43.59
2022-09-05T03:20:51.370Z,43.55
2022-09-05T03:23:33.435Z,44.35
2022-09-05T03:26:27.374Z,44.14
2022-09-05T03:28:59.729Z,44.51
2022-09-05T03:31:57.299Z,44.34
2022-09-05T03:34:53.688Z,44.31
2022-09-05T03:37:50.718Z,44.41
2022-09-05T03:40:36.626Z,45.23
2022-09-05T03:43:33.593Z,44.37
2022-09-05T03:46:06.192Z,45.08
2022-09-05T03:48:47.409Z,45.17
2022-09-05T03:57:06.999Z,44.75
2022-09-05T03:57:28.164Z,45.26
2022-09-05T03:57:46.892Z,45.00
2022-09-05T04:00:22.492Z,45.29
2022-09-05T04:06:36.135Z,45.25
2022-09-05T04:08:16.081Z,45.58
2022-09-05T04:09:06.276Z,45.63
2022-09-05T04:11:39.943Z,45.89
2022-09-05T04:14:25.652Z,45.87
2022-09-05T04:17:00.864Z,46.14
2022-09-05T04:19:37.233Z,46.00
2022-09-05T04:22:22.602Z,45.98
2022-09-05T04:24:58.691Z,46.42
2022-09-05T04:27:48.271Z,46.22
2022-09-05T04:30:38.787Z,46.72
2022-09-05T04:33:16.039Z,46.86
2022-09-05T04:35:51.662Z,46.74
2022-09-05T04:38:33.748Z,47.22
2022-09-05T04:41:04.522Z,47.38
2022-09-05T04:43:56.186Z,46.94
2022-09-05T04:46:31.996Z,47.27
2022-09-05T04:49:24.497Z,47.39
2022-09-05T04:52:09.411Z,47.36
2022-09-05T04:54:57.399Z,47.51
2022-09-05T04:57:38.602Z,47.57
2022-09-05T05:02:35.161Z,47.56
2022-09-05T05:06:15.942Z,47.36
2022-09-05T05:09:00.263Z,47.53
2022-09-05T05:18:00.299Z,47.68
2022-09-05T05:18:11.988Z,47.55
2022-09-05T05:18:53.332Z,48.08
2022-09-05T05:21:05.768Z,48.04
2022-09-05T05:23:39.414Z,48.17
2022-09-05T05:26:11.384Z,48.30
2022-09-05T05:29:07.520Z,48.58
2022-09-05T05:31:38.808Z,48.58
2022-09-05T05:34:24.002Z,48.52
2022-09-05T05:37:26.738Z,48.68
2022-09-05T05:40:09.834Z,48.37
2022-09-05T05:42:40.088Z,48.72
2022-09-05T05:45:21.218Z,48.56
2022-09-05T05:48:02.446Z,48.55
2022-09-05T05:50:57.409Z,48.45
2022-09-05T05:53:47.909Z,48.41
2022-09-05T05:56:38.006Z,48.37
2022-09-05T05:59:11.111Z,48.71
2022-09-05T06:01:58.832Z,48.63
2022-09-05T06:04:45.177Z,48.42
2022-09-05T06:09:48.000Z,48.13
2022-09-05T06:14:56.829Z,47.82
2022-09-05T06:17:10.402Z,47.94
2022-09-05T06:21:54.555Z,47.67
2022-09-05T06:24:03.871Z,47.19
2022-09-05T06:26:36.399Z,47.43
2022-09-05T06:29:15.564Z,47.17
2022-09-05T06:31:55.917Z,46.77
2022-09-05T06:34:47.114Z,46.93
2022-09-05T06:37:36.454Z,46.82
2022-09-05T06:40:18.650Z,46.55
2022-09-05T06:43:24.507Z,46.45
2022-09-05T06:47:23.050Z,46.43
2022-09-05T06:49:51.061Z,46.03
2022-09-05T06:52:43.728Z,46.17
2022-09-05T06:55:28.582Z,45.64
2022-09-05T06:58:26.034Z,45.55
2022-09-05T07:00:56.150Z,45.44
2022-09-05T07:03:33.294Z,45.16
2022-09-05T07:06:19.518Z,45.10
2022-09-05T07:09:08.530Z,44.52
2022-09-05T07:11:55.709Z,44.47
2022-09-05T07:14:28.094Z,44.05
2022-09-05T07:17:13.719Z,43.96
2022-09-05T07:22:55.359Z,43.55
2022-09-05T07:25:28.279Z,43.35
2022-09-05T07:28:28.601Z,43.20
2022-09-05T07:31:27.305Z,42.70
2022-09-05T07:34:22.784Z,42.74
2022-09-05T07:37:13.936Z,42.85
2022-09-05T07:40:12.974Z,42.71
2022-09-05T07:43:08.977Z,42.63
2022-09-05T07:45:55.296Z,43.13
2022-09-05T07:48:34.640Z,43.07
2022-09-05T07:55:16.746Z,43.12
2022-09-05T07:56:55.974Z,43.32
2022-09-05T07:59:41.868Z,42.89
2022-09-05T08:02:11.393Z,42.71
2022-09-05T08:04:40.860Z,42.47
2022-09-05T08:07:47.298Z,42.44
2022-09-05T08:10:10.497Z,42.37
2022-09-05T08:13:24.352Z,41.89
2022-09-05T08:16:10.040Z,41.43
2022-09-05T08:18:46.049Z,41.09
2022-09-05T08:21:22.335Z,41.21
2022-09-05T08:24:15.076Z,41.02
2022-09-05T08:26:53.011Z,40.87
2022-09-05T08:29:35.004Z,40.60
2022-09-05T08:32:34.695Z,40.44
2022-09-05T08:35:25.317Z,40.35
2022-09-05T08:37:54.432Z,40.33
2022-09-05T08:40:35.701Z,40.16
2022-09-05T08:46:36.772Z,39.96
2022-09-05T08:46:44.586Z,39.64
2022-09-05T08:49:45.586Z,39.61
2022-09-05T08:52:35.169Z,39.39
2022-09-05T08:55:10.190Z,39.22
2022-09-05T08:57:46.173Z,39.23
2022-09-05T09:00:24.496Z,38.70
2022-09-05T09:03:22.522Z,38.56
2022-09-05T09:06:13.305Z,38.65
2022-09-05T09:09:05.844Z,38.38
2022-09-05T09:11:48.758Z,37.76
2022-09-05T09:14:37.309Z,37.85
2022-09-05T09:17:27.261Z,37.65
2022-09-05T09:20:16.765Z,37.40
2022-09-05T09:23:31.884Z,36.59
2022-09-05T09:25:59.469Z,36.35
2022-09-05T09:28:50.187Z,36.09
2022-09-05T09:31:52.408Z,36.94
2022-09-05T09:34:25.468Z,36.02
2022-09-05T09:37:00.945Z,35.93
2022-09-05T09:39:52.201Z,35.83
2022-09-05T09:42:38.979Z,35.63
2022-09-05T09:45:27.775Z,34.55
2022-09-05T09:48:10.494Z,34.73
2022-09-05T09:51:09.459Z,35.01
2022-09-05T09:54:03.786Z,34.73
2022-09-05T09:56:59.209Z,34.35
2022-09-05T10:00:21.357Z,34.20
2022-09-05T10:07:22.881Z,34.44
2022-09-05T10:10:46.917Z,33.92
2022-09-05T10:10:51.763Z,33.71
2022-09-05T10:12:40.490Z,33.26
2022-09-05T10:15:31.659Z,33.37
2022-09-05T10:18:33.349Z,33.00
2022-09-05T10:21:34.703Z,32.82
2022-09-05T10:24:28.990Z,32.85
2022-09-05T10:27:25.506Z,32.79
2022-09-05T10:30:11.917Z,32.62
2022-09-05T10:35:17.913Z,32.19
2022-09-05T10:36:02.058Z,32.17
2022-09-05T10:38:45.379Z,31.68
2022-09-05T10:41:22.602Z,31.47
2022-09-05T10:43:58.197Z,31.38
2022-09-05T10:46:52.177Z,31.28
2022-09-05T10:49:25.418Z,30.90
2022-09-05T10:52:19.086Z,30.81
2022-09-05T10:55:17.745Z,30.72
2022-09-05T10:57:54.406Z,30.35
2022-09-05T11:02:26.377Z,30.44
2022-09-05T11:04:00.472Z,30.20
2022-09-05T11:06:47.010Z,30.39
2022-09-05T11:09:33.502Z,29.94
2022-09-05T11:12:32.827Z,30.24
2022-09-05T11:15:02.624Z,29.01
2022-09-05T11:17:41.967Z,29.69
2022-09-05T11:20:35.113Z,29.67
2022-09-05T11:23:10.165Z,28.70
2022-09-05T11:25:41.072Z,28.68
2022-09-05T11:28:23.011Z,28.53
2022-09-05T11:30:54.717Z,27.82
2022-09-05T11:39:45.854Z,28.28
2022-09-05T11:40:08.820Z,27.88
2022-09-05T11:40:31.536Z,28.36
2022-09-05T11:43:07.428Z,27.65
2022-09-05T11:45:57.988Z,27.70
2022-09-05T11:48:53.483Z,27.33
2022-09-05T11:51:44.674Z,27.38
2022-09-05T11:54:27.192Z,26.63
2022-09-05T11:56:53.625Z,25.60
2022-09-05T12:00:31.091Z,26.12
2022-09-05T12:03:05.470Z,25.26
2022-09-05T12:05:59.324Z,25.33
2022-09-05T12:08:29.032Z,24.60
2022-09-05T12:11:14.195Z,24.38
2022-09-05T12:13:48.100Z,24.08
2022-09-05T12:16:38.133Z,24.76
2022-09-05T12:19:33.998Z,24.78
2022-09-05T12:22:23.794Z,26.40
2022-09-05T12:26:02.882Z,25.09
2022-09-05T12:29:28.142Z,24.05
2022-09-05T12:32:59.508Z,24.15
2022-09-05T12:36:12.191Z,23.31
2022-09-05T12:40:53.770Z,23.39
2022-09-05T12:41:42.574Z,22.75
2022-09-05T12:44:40.226Z,22.95
2022-09-05T12:46:09.580Z,23.77
2022-09-05T12:48:57.857Z,23.55
2022-09-05T12:51:46.705Z,23.30
2022-09-05T12:54:33.129Z,23.65
2022-09-05T12:58:45.813Z,23.38
2022-09-05T13:03:02.646Z,23.02
2022-09-05T13:03:29.066Z,23.03
2022-09-05T13:06:23.008Z,23.53
2022-09-05T13:08:59.426Z,22.62
2022-09-05T13:14:47.446Z,21.77
2022-09-05T13:14:55.594Z,22.56
2022-09-05T13:17:14.175Z,21.91
2022-09-05T13:19:51.175Z,22.02
2022-09-05T13:22:24.364Z,22.12
2022-09-05T13:25:04.309Z,22.41
2022-09-05T13:27:39.314Z,22.09
2022-09-05T13:31:59.643Z,22.31
2022-09-05T13:38:12.339Z,22.50
2022-09-05T13:38:13.583Z,21.80
2022-09-05T13:39:20.125Z,21.66
2022-09-05T13:41:53.061Z,21.71
2022-09-05T13:44:26.935Z,21.39
2022-09-05T13:47:32.930Z,21.84
2022-09-05T13:50:23.233Z,22.18
2022-09-05T13:53:15.582Z,21.83
2022-09-05T13:56:03.281Z,22.23
2022-09-05T13:58:56.591Z,22.34
2022-09-05T14:02:22.629Z,21.71
2022-09-05T14:05:20.762Z,22.30
2022-09-05T14:08:18.817Z,22.40
2022-09-05T14:11:12.351Z,21.74
2022-09-05T14:13:49.181Z,21.57
2022-09-05T14:16:24.849Z,21.34
2022-09-05T14:19:10.985Z,20.76
2022-09-05T14:21:41.150Z,21.20
2022-09-05T14:24:27.571Z,21.79
2022-09-05T14:27:23.901Z,21.88
2022-09-05T14:30:09.339Z,20.57
2022-09-05T14:37:44.465Z,21.56
2022-09-05T14:37:48.158Z,21.17
2022-09-05T14:39:45.300Z,20.62
2022-09-05T14:42:57.491Z,20.71
2022-09-05T14:45:37.087Z,20.72
2022-09-05T14:48:33.668Z,20.38
2022-09-05T14:51:28.781Z,20.61
2022-09-05T14:54:10.562Z,20.39
2022-09-05T14:59:02.638Z,20.29
2022-09-05T15:02:54.383Z,20.11
2022-09-05T15:03:00.681Z,20.34
2022-09-05T15:05:29.285Z,19.67
2022-09-05T15:08:01.880Z,20.10
2022-09-05T15:12:18.265Z,19.91
2022-09-05T15:13:25.949Z,19.44
2022-09-05T15:16:02.619Z,19.28
2022-09-05T15:18:34.500Z,19.49
2022-09-05T15:21:33.614Z,19.72
2022-09-05T15:24:17.292Z,18.78
2022-09-05T15:26:48.409Z,19.02
2022-09-05T15:29:25.891Z,18.69
2022-09-05T15:32:10.119Z,19.10
2022-09-05T15:34:38.611Z,19.03
2022-09-05T15:37:41.156Z,19.03
2022-09-05T15:40:23.903Z,18.71
2022-09-05T15:43:02.531Z,19.06
2022-09-05T15:45:32.951Z,18.92
2022-09-05T15:48:14.855Z,18.60
2022-09-05T15:50:51.242Z,19.08
2022-09-05T15:53:34.361Z,19.32
2022-09-05T15:56:18.192Z,19.42
2022-09-05T15:58:53.049Z,19.26
2022-09-05T16:01:31.184Z,19.09
2022-09-05T16:10:26.657Z,18.63
2022-09-05T16:10:33.766Z,18.69
2022-09-05T16:10:35.760Z,18.98
2022-09-05T16:12:50.376Z,19.33
2022-09-05T16:18:42.647Z,19.21
2022-09-05T16:23:13.192Z,18.93
2022-09-05T16:23:17.546Z,18.89
2022-09-05T16:24:05.331Z,19.14
2022-09-05T16:26:47.026Z,19.15
2022-09-05T16:29:26.049Z,19.08
2022-09-05T16:32:11.699Z,19.63
2022-09-05T16:35:01.406Z,19.46
2022-09-05T16:37:29.882Z,19.01
2022-09-05T16:40:35.478Z,19.59
2022-09-05T16:43:22.713Z,19.82
2022-09-05T16:45:58.621Z,19.77
2022-09-05T16:48:36.953Z,19.95
2022-09-05T16:51:35.487Z,19.97
2022-09-05T16:54:14.509Z,19.91
2022-09-05T16:56:54.151Z,20.14
2022-09-05T16:59:32.489Z,20.08
2022-09-05T17:02:05.842Z,20.00
2022-09-05T17:04:42.571Z,20.18
2022-09-05T17:08:07.549Z,20.85
2022-09-05T17:10:45.040Z,20.74
2022-09-05T17:13:37.848Z,21.28
2022-09-05T17:16:06.317Z,21.25
2022-09-05T17:18:35.312Z,21.42
2022-09-05T17:21:09.982Z,21.66
2022-09-05T17:29:18.884Z,21.96
2022-09-05T17:29:36.535Z,22.27
2022-09-05T17:32:39.749Z,22.68
2022-09-05T17:35:17.298Z,22.80
2022-09-05T17:38:15.788Z,22.84
2022-09-05T17:40:42.695Z,23.09
2022-09-05T17:43:28.537Z,23.11
2022-09-05T17:46:26.049Z,23.61
2022-09-05T17:49:17.500Z,23.62
2022-09-05T17:51:51.434Z,24.08
2022-09-05T17:54:29.874Z,23.77
2022-09-05T17:56:56.465Z,24.35
2022-09-05T17:59:24.563Z,24.32
2022-09-05T18:02:03.575Z,24.43
2022-09-05T18:04:50.392Z,24.62
2022-09-05T18:07:19.536Z,25.02
2022-09-05T18:09:58.879Z,24.68
2022-09-05T18:13:13.935Z,25.28
2022-09-05T18:15:37.742Z,25.33
2022-09-05T18:18:22.100Z,25.07
2022-09-05T18:21:21.819Z,25.49
2022-09-05T18:23:58.278Z,25.44
2022-09-05T18:26:27.647Z,25.70
2022-09-05T18:29:21.258Z,26.04
2022-09-05T18:32:13.692Z,26.51
2022-09-05T18:34:42.990Z,26.55
2022-09-05T18:37:36.172Z,26.37
2022-09-05T18:40:08.890Z,26.96
2022-09-05T18:42:52.557Z,27.14
2022-09-05T18:45:28.190Z,27.56
2022-09-05T18:47:59.636Z,27.99
2022-09-05T18:50:33.926Z,28.21
2022-09-05T18:53:10.158Z,28.04
2022-09-05T18:56:13.087Z,28.30
2022-09-05T18:59:09.717Z,28.13
2022-09-05T19:02:01.162Z,28.39
2022-09-05T19:04:49.446Z,28.90
2022-09-05T19:07:26.980Z,29.46
2022-09-05T19:10:01.006Z,29.81
2022-09-05T19:12:47.858Z,29.93
2022-09-05T19:15:24.777Z,30.10
2022-09-05T19:18:26.769Z,30.11
2022-09-05T19:21:12.068Z,29.88
2022-09-05T19:23:50.012Z,30.44
2022-09-05T19:26:17.382Z,30.87
2022-09-05T19:36:45.455Z,31.05
2022-09-05T19:37:05.136Z,31.20
2022-09-05T19:37:08.025Z,31.04
2022-09-05T19:37:26.196Z,31.30
2022-09-05T19:46:44.274Z,31.30
2022-09-05T19:47:26.060Z,31.36
2022-09-05T19:47:45.141Z,31.54
2022-09-05T19:48:34.291Z,31.56
2022-09-05T19:51:17.599Z,31.54
2022-09-05T19:53:53.993Z,31.58
2022-09-05T19:56:44.217Z,31.46
2022-09-05T19:59:22.566Z,31.78
2022-09-05T20:01:51.790Z,32.09
2022-09-05T20:04:19.530Z,32.19
2022-09-05T20:06:48.116Z,32.26
2022-09-05T20:09:17.661Z,32.11
2022-09-05T20:11:49.747Z,32.14
2022-09-05T20:14:25.449Z,32.23
2022-09-05T20:16:56.059Z,32.52
2022-09-05T20:19:34.221Z,32.21
2022-09-05T20:22:21.166Z,32.30
2022-09-05T20:24:52.608Z,32.48
2022-09-05T20:27:19.686Z,32.81
2022-09-05T20:30:06.162Z,32.50
2022-09-05T20:32:40.521Z,32.75
2022-09-05T20:37:52.935Z,32.65
2022-09-05T20:43:22.462Z,32.42
2022-09-05T20:43:31.793Z,32.70
2022-09-05T20:44:01.440Z,32.61
2022-09-05T20:50:26.056Z,32.55
2022-09-05T20:54:22.764Z,32.67
2022-09-05T20:54:27.969Z,32.47
2022-09-05T20:55:38.374Z,32.67
2022-09-05T20:58:31.528Z,32.39
2022-09-05T21:01:20.611Z,32.61
2022-09-05T21:03:58.843Z,32.82
2022-09-05T21:06:26.805Z,33.10
2022-09-05T21:09:06.898Z,33.32
2022-09-05T21:11:34.009Z,33.05
2022-09-05T21:14:04.758Z,32.98
2022-09-05T21:16:37.175Z,33.00
2022-09-05T21:19:04.294Z,33.32
2022-09-05T21:21:33.688Z,33.13
2022-09-05T21:24:15.811Z,33.00
2022-09-05T21:26:43.633Z,33.19
2022-09-05T21:29:13.151Z,33.50
2022-09-05T21:31:45.774Z,33.45
2022-09-05T21:34:48.527Z,32.90
2022-09-05T21:37:17.403Z,33.61
2022-09-05T21:39:58.376Z,33.77
2022-09-05T21:43:51.438Z,33.85
2022-09-05T21:47:34.567Z,33.77
2022-09-05T21:48:03.726Z,33.97
2022-09-05T21:50:46.742Z,34.15
2022-09-05T21:56:54.588Z,33.96
2022-09-05T21:59:24.926Z,34.61
2022-09-05T21:59:25.237Z,34.04
2022-09-05T22:01:54.721Z,34.46
2022-09-05T22:04:22.081Z,34.78
2022-09-05T22:06:49.374Z,34.93
2022-09-05T22:09:20.938Z,34.50
2022-09-05T22:11:50.608Z,34.96
2022-09-05T22:14:19.503Z,35.42
2022-09-05T22:16:48.413Z,35.40
2022-09-05T22:19:22.887Z,35.52
2022-09-05T22:21:55.851Z,35.23
2022-09-05T22:24:24.932Z,35.63
2022-09-05T22:27:12.547Z,35.73
2022-09-05T22:29:43.182Z,35.84
2022-09-05T22:32:14.221Z,35.73
2022-09-05T22:34:40.758Z,36.13
2022-09-05T22:37:07.628Z,35.95
2022-09-05T22:39:36.841Z,35.96
2022-09-05T22:42:10.801Z,36.14
2022-09-05T22:44:41.140Z,36.17
2022-09-05T22:47:11.078Z,36.44
2022-09-05T22:49:37.929Z,36.13
2022-09-05T22:52:06.175Z,36.26
2022-09-05T22:54:33.120Z,36.63
2022-09-05T22:56:59.691Z,36.72
2022-09-05T22:59:26.207Z,36.61
2022-09-05T23:01:52.730Z,36.81
2022-09-05T23:04:19.462Z,36.81
2022-09-05T23:06:46.113Z,36.77
2022-09-05T23:09:12.606Z,36.59
2022-09-05T23:11:39.184Z,36.72
2022-09-05T23:14:05.655Z,36.69
2022-09-05T23:16:32.258Z,36.79
2022-09-05T23:18:58.736Z,36.69
2022-09-05T23:21:25.226Z,36.95
2022-09-05T23:23:51.777Z,36.95
2022-09-05T23:26:18.321Z,36.68
2022-09-05T23:28:44.758Z,37.10
2022-09-05T23:31:12.438Z,37.00
2022-09-05T23:33:41.830Z,36.94
2022-09-05T23:36:10.594Z,37.41
2022-09-05T23:38:37.130Z,37.26
2022-09-05T23:41:12.266Z,37.08
2022-09-05T23:43:38.803Z,37.01
2022-09-05T23:46:05.628Z,37.04
2022-09-05T23:48:32.402Z,37.15
2022-09-05T23:51:08.668Z,36.81
2022-09-05T23:53:35.804Z,37.28
2022-09-05T23:56:04.077Z,37.57
2022-09-05T23:58:31.245Z,37.29
